Time;durP1;ratioP1;P1;durP2;ratioP2;P2;SDS_P1;SDS_P2;PMS_P1;PMS_P2;Temp;Humidity;BMP_temperature;BMP_pressure;BME280_temperature;BME280_humidity;BME280_pressure;Samples;Min_cycle;Max_cycle;Signal;HPM_P1;HPM_P2
2023/12/17 00:02:26;;;;;;;15.23;8.73;;;;;;;2.83;78.73;98926.66;4973777;28;20098;-78
2023/12/17 00:04:55;;;;;;;13.27;8.18;;;;;;;2.81;78.76;98938.78;4974022;28;20113;-78
2023/12/17 00:07:22;;;;;;;11.27;8.20;;;;;;;2.81;79.14;98941.38;4973809;28;20062;-78
2023/12/17 00:09:50;;;;;;;16.63;9.25;;;;;;;2.81;79.86;98938.78;4973552;28;20054;-78
2023/12/17 00:12:18;;;;;;;15.02;9.75;;;;;;;2.81;79.70;98936.22;4973930;28;20051;-78
2023/12/17 00:14:45;;;;;;;14.43;8.90;;;;;;;2.81;79.33;98941.38;4974195;28;20109;-78
2023/12/17 00:17:12;;;;;;;12.77;8.00;;;;;;;2.80;79.26;98944.00;4973698;28;20050;-78
2023/12/17 00:19:40;;;;;;;16.63;7.85;;;;;;;2.76;78.99;98930.47;4973294;28;20046;-77
2023/12/17 00:22:09;;;;;;;10.32;6.93;;;;;;;2.73;79.33;98920.28;4973401;28;20054;-78
2023/12/17 00:24:36;;;;;;;10.48;7.60;;;;;;;2.72;79.35;98920.38;4973545;28;20051;-78
2023/12/17 00:27:05;;;;;;;14.85;9.23;;;;;;;2.73;80.03;98920.28;4973524;28;20490;-78
2023/12/17 00:29:33;;;;;;;12.30;7.20;;;;;;;2.71;79.62;98916.94;4973259;28;20430;-78
2023/12/17 00:32:00;;;;;;;12.68;8.02;;;;;;;2.69;79.66;98926.53;4974059;28;20146;-77
2023/12/17 00:34:28;;;;;;;12.05;7.85;;;;;;;2.68;79.50;98924.84;4973153;28;20427;-78
2023/12/17 00:36:56;;;;;;;10.82;7.20;;;;;;;2.66;79.54;98924.91;4973346;28;20058;-78
2023/12/17 00:39:25;;;;;;;11.82;7.38;;;;;;;2.66;79.64;98924.06;4973193;28;20105;-78
2023/12/17 00:41:53;;;;;;;9.93;6.18;;;;;;;2.66;79.45;98916.34;4973699;28;20101;-78
2023/12/17 00:44:20;;;;;;;13.23;7.90;;;;;;;2.65;79.42;98925.00;4973169;28;20055;-77
2023/12/17 00:46:48;;;;;;;11.98;7.50;;;;;;;2.61;79.10;98931.22;4973359;28;20047;-78
2023/12/17 00:49:15;;;;;;;10.10;6.65;;;;;;;2.59;79.80;98933.03;4973034;28;20565;-78
2023/12/17 00:51:43;;;;;;;8.85;6.40;;;;;;;2.60;79.78;98935.53;4973824;28;20051;-78
2023/12/17 00:54:11;;;;;;;10.40;6.22;;;;;;;2.58;79.66;98928.75;4973443;28;20125;-78
2023/12/17 00:56:40;;;;;;;10.65;7.03;;;;;;;2.57;79.60;98927.09;4972856;28;20047;-78
2023/12/17 00:59:07;;;;;;;11.55;7.28;;;;;;;2.59;80.09;98922.72;4972974;28;20054;-78
2023/12/17 01:01:35;;;;;;;11.55;6.65;;;;;;;2.63;80.23;98919.09;4973428;28;20059;-78
2023/12/17 01:04:03;;;;;;;13.27;6.95;;;;;;;2.66;80.35;98924.06;4973324;28;20079;-77
2023/12/17 01:06:30;;;;;;;12.32;7.20;;;;;;;2.68;79.66;98930.00;4973175;28;20055;-78
2023/12/17 01:08:58;;;;;;;9.35;7.15;;;;;;;2.67;79.70;98925.75;4973171;28;20047;-80
2023/12/17 01:11:25;;;;;;;10.45;6.60;;;;;;;2.65;79.19;98933.56;4973174;28;20065;-80
2023/12/17 01:13:54;;;;;;;8.85;6.57;;;;;;;2.63;78.87;98931.97;4973320;28;20117;-80
2023/12/17 01:16:22;;;;;;;15.35;7.22;;;;;;;2.60;79.09;98937.25;4973013;28;20055;-80
2023/12/17 01:18:50;;;;;;;11.80;7.00;;;;;;;2.58;79.22;98933.91;4972736;28;20577;-80
2023/12/17 01:21:17;;;;;;;9.63;6.80;;;;;;;2.57;79.75;98943.41;4973264;28;20059;-80
2023/12/17 01:23:45;;;;;;;9.82;6.60;;;;;;;2.57;79.57;98950.31;4972872;28;20050;-80
2023/12/17 01:26:18;;;;;;;8.45;5.85;;;;;;;2.59;79.28;98959.63;4972701;28;20051;-80
2023/12/17 01:28:46;;;;;;;10.15;6.65;;;;;;;2.62;79.32;98953.47;4972610;28;20050;-80
2023/12/17 01:31:16;;;;;;;9.85;5.95;;;;;;;2.63;79.23;98958.56;4973086;28;20562;-80
2023/12/17 01:33:43;;;;;;;11.02;6.63;;;;;;;2.63;78.62;98962.91;4974226;28;20089;-80
2023/12/17 01:36:12;;;;;;;12.00;6.47;;;;;;;2.60;78.81;98975.91;4976661;28;20062;-80
2023/12/17 01:38:39;;;;;;;11.82;8.07;;;;;;;2.62;81.69;98980.09;4975999;28;20055;-80
2023/12/17 01:41:07;;;;;;;14.80;9.65;;;;;;;2.72;84.17;98980.47;4976292;28;20423;-79
2023/12/17 01:43:35;;;;;;;19.05;11.65;;;;;;;2.72;83.42;98987.38;4975115;28;20047;-80
2023/12/17 01:46:02;;;;;;;15.98;11.27;;;;;;;2.71;82.56;98981.38;4974482;28;20059;-80
2023/12/17 01:48:32;;;;;;;14.10;9.57;;;;;;;2.70;81.90;98972.00;4974172;28;20051;-79
2023/12/17 01:51:00;;;;;;;16.45;11.38;;;;;;;2.73;83.26;98966.66;4974681;28;20082;-80
2023/12/17 01:53:29;;;;;;;15.50;8.50;;;;;;;2.75;83.11;98964.84;4974225;28;20050;-80
2023/12/17 01:55:57;;;;;;;13.02;7.93;;;;;;;2.68;80.86;98958.34;4973844;28;20491;-80
2023/12/17 01:58:25;;;;;;;13.80;7.38;;;;;;;2.63;80.76;98956.00;4974241;28;20084;-80
2023/12/17 02:00:52;;;;;;;14.05;7.68;;;;;;;2.63;80.69;98943.09;4976462;28;20114;-80
2023/12/17 02:03:20;;;;;;;10.73;6.97;;;;;;;2.63;80.41;98943.09;4975888;28;20047;-79
2023/12/17 02:05:49;;;;;;;10.27;6.50;;;;;;;2.62;80.59;98948.31;4975888;28;20050;-80
2023/12/17 02:08:17;;;;;;;9.35;5.88;;;;;;;2.64;81.20;98951.66;4975301;28;20430;-80
2023/12/17 02:10:44;;;;;;;16.13;8.02;;;;;;;2.67;82.21;98954.09;4975854;28;20062;-80
2023/12/17 02:13:14;;;;;;;9.65;7.22;;;;;;;2.70;83.96;98953.94;4975996;28;20113;-80
2023/12/17 02:15:42;;;;;;;11.57;6.18;;;;;;;2.68;82.69;98950.59;4976085;28;20522;-80
2023/12/17 02:18:10;;;;;;;9.38;6.63;;;;;;;2.66;81.57;98944.69;4975235;28;20106;-79
2023/12/17 02:20:37;;;;;;;10.02;6.55;;;;;;;2.67;82.05;98943.81;4975955;28;20057;-79
2023/12/17 02:23:06;;;;;;;8.68;6.72;;;;;;;2.70;84.16;98941.06;4975838;28;20101;-80
2023/12/17 02:25:34;;;;;;;18.50;6.10;;;;;;;2.70;83.57;98941.06;4975714;28;20046;-80
2023/12/17 02:28:01;;;;;;;8.40;6.15;;;;;;;2.70;83.05;98935.09;4975200;28;20110;-79
2023/12/17 02:30:29;;;;;;;11.20;6.60;;;;;;;2.70;81.76;98946.22;4975676;28;20051;-80
2023/12/17 02:32:57;;;;;;;9.63;6.40;;;;;;;2.70;81.36;98941.06;4975563;28;20055;-80
2023/12/17 02:35:25;;;;;;;7.95;5.40;;;;;;;2.69;80.77;98944.56;4975089;28;20054;-80
2023/12/17 02:37:53;;;;;;;12.35;5.95;;;;;;;2.66;80.26;98939.53;4975112;28;20065;-80
2023/12/17 02:40:22;;;;;;;9.13;6.43;;;;;;;2.64;81.84;98937.03;4975667;28;20050;-80
2023/12/17 02:42:49;;;;;;;7.93;5.63;;;;;;;2.68;81.66;98932.56;4975169;28;20054;-80
2023/12/17 02:45:17;;;;;;;13.82;6.25;;;;;;;2.63;80.47;98932.78;4975555;28;20051;-80
2023/12/17 02:47:45;;;;;;;6.63;5.15;;;;;;;2.62;80.90;98927.72;4975130;28;20061;-80
2023/12/17 02:50:12;;;;;;;8.30;5.78;;;;;;;2.61;80.46;98926.88;4975422;28;20578;-80
2023/12/17 02:52:40;;;;;;;8.60;6.32;;;;;;;2.60;80.14;98919.22;4975373;28;20482;-80
2023/12/17 02:55:09;;;;;;;10.90;6.50;;;;;;;2.58;80.87;98921.03;4975015;28;20137;-80
2023/12/17 02:57:38;;;;;;;7.30;5.60;;;;;;;2.56;80.79;98918.56;4975552;28;20054;-80
2023/12/17 03:00:07;;;;;;;8.95;6.00;;;;;;;2.55;79.84;98931.50;4974562;28;20050;-80
2023/12/17 03:02:35;;;;;;;10.13;5.68;;;;;;;2.53;79.80;98918.69;4974917;28;20133;-80
2023/12/17 03:05:03;;;;;;;9.20;6.10;;;;;;;2.53;81.07;98913.53;4975027;28;20047;-80
2023/12/17 03:07:30;;;;;;;9.10;5.60;;;;;;;2.55;81.30;98914.28;4974804;28;20187;-80
2023/12/17 03:09:58;;;;;;;8.45;6.03;;;;;;;2.56;80.82;98918.56;4974380;28;20047;-80
2023/12/17 03:12:25;;;;;;;9.27;5.47;;;;;;;2.56;80.34;98907.38;4974758;28;20145;-80
2023/12/17 03:14:54;;;;;;;10.10;6.18;;;;;;;2.55;80.93;98905.72;4974819;28;20054;-80
2023/12/17 03:17:22;;;;;;;7.22;6.07;;;;;;;2.55;80.63;98906.56;4974730;28;20125;-80
2023/12/17 03:19:49;;;;;;;8.77;5.85;;;;;;;2.57;81.36;98899.59;4974188;28;20137;-80
2023/12/17 03:22:17;;;;;;;17.05;5.78;;;;;;;2.62;80.88;98886.47;4974684;28;20442;-80
2023/12/17 03:24:45;;;;;;;10.32;6.03;;;;;;;2.62;80.65;98892.50;4974270;28;20475;-80
2023/12/17 03:27:12;;;;;;;8.45;6.20;;;;;;;2.66;81.55;98898.31;4974166;28;20137;-80
2023/12/17 03:29:40;;;;;;;8.15;5.97;;;;;;;2.68;82.30;98901.66;4973543;28;20109;-80
2023/12/17 03:32:09;;;;;;;8.75;6.10;;;;;;;2.71;82.84;98895.50;4974111;28;20050;-80
2023/12/17 03:34:37;;;;;;;9.43;6.35;;;;;;;2.70;81.64;98893.84;4974247;28;20047;-80
2023/12/17 03:37:05;;;;;;;9.32;5.88;;;;;;;2.70;82.85;98891.28;4974299;28;20059;-80
2023/12/17 03:39:32;;;;;;;8.40;5.72;;;;;;;2.73;83.19;98889.34;4973685;28;20050;-80
2023/12/17 03:42:00;;;;;;;13.43;7.38;;;;;;;2.75;82.85;98881.56;4974464;28;20047;-80
2023/12/17 03:44:29;;;;;;;9.02;6.20;;;;;;;2.79;83.50;98883.06;4974013;28;20046;-80
2023/12/17 03:46:57;;;;;;;11.35;6.70;;;;;;;2.82;84.01;98882.91;4974376;28;20047;-80
2023/12/17 03:49:26;;;;;;;9.73;6.35;;;;;;;2.81;82.93;98881.25;4973915;28;20054;-80
2023/12/17 03:51:53;;;;;;;9.88;6.10;;;;;;;2.82;83.09;98878.63;4974138;28;20422;-80
2023/12/17 03:54:21;;;;;;;9.57;6.80;;;;;;;2.86;84.14;98871.53;4978375;28;20058;-80
2023/12/17 03:56:49;;;;;;;13.13;6.47;;;;;;;2.86;84.06;98867.25;4980444;28;20051;-80
2023/12/17 03:59:17;;;;;;;9.80;6.82;;;;;;;2.86;83.18;98861.22;4985073;28;20053;-80
2023/12/17 04:01:46;;;;;;;9.50;7.47;;;;;;;2.88;83.00;98861.97;4983413;28;20055;-80
2023/12/17 04:04:13;;;;;;;12.38;8.05;;;;;;;2.88;83.41;98862.81;4984377;28;20055;-80
2023/12/17 04:06:43;;;;;;;11.45;8.13;;;;;;;2.91;83.03;98861.00;4982814;28;20063;-80
2023/12/17 04:09:11;;;;;;;16.48;8.23;;;;;;;2.91;82.71;98856.69;4985587;28;20046;-80
2023/12/17 04:11:39;;;;;;;13.43;7.60;;;;;;;2.89;82.31;98859.34;4984807;28;20050;-80
2023/12/17 04:14:06;;;;;;;13.35;8.38;;;;;;;2.89;82.07;98859.34;4977058;28;20054;-80
2023/12/17 04:16:34;;;;;;;10.85;7.32;;;;;;;2.90;81.78;98849.84;4980515;28;20054;-80
2023/12/17 04:19:03;;;;;;;10.70;7.85;;;;;;;2.91;81.99;98850.69;4984299;28;20054;-80
2023/12/17 04:21:31;;;;;;;15.13;8.88;;;;;;;2.96;82.52;98854.69;4985176;28;20055;-80
2023/12/17 04:24:00;;;;;;;11.60;7.75;;;;;;;2.99;82.21;98853.72;4975487;28;20085;-80
2023/12/17 04:26:28;;;;;;;15.90;9.55;;;;;;;3.00;82.21;98855.38;4973438;28;20384;-80
2023/12/17 04:28:55;;;;;;;11.95;8.98;;;;;;;2.99;81.39;98854.53;4973246;28;20519;-80
2023/12/17 04:31:23;;;;;;;13.60;8.27;;;;;;;2.99;80.84;98856.28;4973411;28;20459;-80
2023/12/17 04:33:51;;;;;;;14.02;8.95;;;;;;;2.99;81.04;98851.94;4973668;28;20051;-80
2023/12/17 04:36:19;;;;;;;15.55;10.35;;;;;;;3.00;81.09;98845.06;4973386;28;20082;-80
2023/12/17 04:38:48;;;;;;;15.02;10.60;;;;;;;3.03;81.58;98850.06;4973084;28;20572;-80
2023/12/17 04:41:17;;;;;;;16.38;10.50;;;;;;;3.06;83.01;98849.91;4973711;28;20051;-79
2023/12/17 04:43:45;;;;;;;16.02;10.27;;;;;;;3.08;82.74;98855.81;4973565;28;20081;-80
2023/12/17 04:46:12;;;;;;;15.02;10.15;;;;;;;3.09;81.44;98849.75;4973469;28;20050;-79
2023/12/17 04:48:40;;;;;;;18.30;10.57;;;;;;;3.11;82.09;98850.50;4973222;28;20473;-80
2023/12/17 04:51:08;;;;;;;15.63;8.88;;;;;;;3.12;82.19;98859.91;4973184;28;20052;-80
2023/12/17 04:53:35;;;;;;;16.77;10.20;;;;;;;3.11;81.54;98858.25;4973511;28;20054;-80
2023/12/17 04:56:04;;;;;;;16.20;9.45;;;;;;;3.13;81.51;98852.97;4973132;28;20554;-80
2023/12/17 04:58:33;;;;;;;15.85;10.60;;;;;;;3.17;82.96;98851.91;4972901;28;20093;-79
2023/12/17 05:01:00;;;;;;;17.10;10.35;;;;;;;3.21;83.58;98851.69;4973384;28;20051;-80
2023/12/17 05:03:29;;;;;;;14.95;9.75;;;;;;;3.22;82.17;98848.19;4973279;28;20051;-80
2023/12/17 05:05:56;;;;;;;14.63;9.40;;;;;;;3.18;81.19;98849.28;4973463;28;20065;-80
2023/12/17 05:08:24;;;;;;;13.57;9.80;;;;;;;3.16;82.49;98848.50;4973457;28;20054;-80
2023/12/17 05:10:52;;;;;;;19.92;10.05;;;;;;;3.14;83.01;98842.59;4976979;28;20558;-80
2023/12/17 05:13:20;;;;;;;17.63;11.00;;;;;;;3.14;82.97;98841.78;4977145;28;20567;-80
2023/12/17 05:15:49;;;;;;;15.15;9.25;;;;;;;3.11;81.83;98840.19;4976870;28;20074;-80
2023/12/17 05:18:16;;;;;;;13.57;9.20;;;;;;;3.08;81.23;98833.47;4976409;28;20058;-80
2023/12/17 05:20:45;;;;;;;16.05;10.90;;;;;;;3.06;81.50;98824.97;4977011;28;20058;-80
2023/12/17 05:23:13;;;;;;;14.38;9.57;;;;;;;3.06;82.21;98827.53;4976965;28;20053;-80
2023/12/17 05:25:40;;;;;;;16.85;10.77;;;;;;;3.05;81.07;98827.63;4976992;28;20074;-80
2023/12/17 05:28:09;;;;;;;18.10;11.18;;;;;;;3.05;81.46;98830.19;4976340;28;20666;-80
2023/12/17 05:30:37;;;;;;;16.77;11.13;;;;;;;3.05;80.93;98832.78;4976531;28;20082;-80
2023/12/17 05:33:07;;;;;;;16.65;11.02;;;;;;;3.04;80.46;98831.09;4976926;28;20047;-80
2023/12/17 05:35:35;;;;;;;16.35;10.85;;;;;;;3.07;81.12;98841.25;4976108;28;20051;-80
2023/12/17 05:38:02;;;;;;;18.48;11.50;;;;;;;3.08;81.26;98835.19;4976151;28;20105;-80
2023/12/17 05:40:30;;;;;;;17.17;11.50;;;;;;;3.10;81.80;98835.94;4976452;28;20059;-80
2023/12/17 05:42:57;;;;;;;18.25;11.52;;;;;;;3.11;81.57;98836.78;4976482;28;20129;-80
2023/12/17 05:45:25;;;;;;;17.15;11.38;;;;;;;3.11;81.07;98840.19;4976303;28;20106;-80
2023/12/17 05:47:52;;;;;;;17.20;11.82;;;;;;;3.13;81.77;98837.50;4976246;28;20055;-80
2023/12/17 05:50:22;;;;;;;20.77;13.23;;;;;;;3.18;84.76;98846.69;4976404;28;20050;-80
2023/12/17 05:52:50;;;;;;;30.77;13.02;;;;;;;3.24;85.99;98848.94;4976488;28;20051;-80
2023/12/17 05:55:19;;;;;;;16.90;11.50;;;;;;;3.25;85.38;98850.59;4975955;28;20047;-79
2023/12/17 05:57:49;;;;;;;17.35;10.68;;;;;;;3.21;83.98;98854.25;4975534;28;20055;-80
2023/12/17 06:00:18;;;;;;;18.70;11.80;;;;;;;3.19;84.25;98856.09;4976192;28;20518;-80
2023/12/17 06:02:45;;;;;;;18.48;11.40;;;;;;;3.22;84.87;98853.34;4976238;28;20051;-79
2023/12/17 06:05:13;;;;;;;22.48;12.77;;;;;;;3.25;86.28;98855.75;4976096;28;20054;-79
2023/12/17 06:07:42;;;;;;;24.95;12.43;;;;;;;3.32;88.15;98858.03;4976184;28;20065;-79
2023/12/17 06:10:10;;;;;;;19.23;11.60;;;;;;;3.27;87.76;98859.09;4975610;28;20105;-80
2023/12/17 06:12:38;;;;;;;22.15;12.65;;;;;;;3.24;87.27;98855.88;4980676;28;20459;-79
2023/12/17 06:15:07;;;;;;;26.33;11.95;;;;;;;3.22;88.13;98858.50;4982324;28;20206;-80
2023/12/17 06:17:34;;;;;;;24.65;11.90;;;;;;;3.19;86.85;98860.41;4982941;28;20081;-80
2023/12/17 06:20:03;;;;;;;15.73;9.98;;;;;;;3.17;85.57;98863.09;4975724;28;20061;-80
2023/12/17 06:22:33;;;;;;;42.28;14.80;;;;;;;3.20;86.69;98859.50;4975880;28;20050;-79
2023/12/17 06:25:02;;;;;;;15.15;10.52;;;;;;;3.11;84.96;98858.25;4976314;28;20113;-79
2023/12/17 06:27:30;;;;;;;17.58;10.10;;;;;;;3.00;83.45;98847.66;4975811;28;20059;-79
2023/12/17 06:29:58;;;;;;;17.00;10.88;;;;;;;2.96;84.04;98849.53;4975174;28;20047;-79
2023/12/17 06:32:25;;;;;;;22.63;12.40;;;;;;;2.95;84.34;98849.63;4975804;28;20502;-79
2023/12/17 06:34:53;;;;;;;19.23;12.43;;;;;;;2.96;85.10;98848.72;4975727;28;20518;-80
2023/12/17 06:37:20;;;;;;;21.33;13.60;;;;;;;2.99;86.06;98849.38;4976231;28;20086;-80
2023/12/17 06:39:48;;;;;;;22.17;12.05;;;;;;;2.97;84.77;98842.63;4977475;28;20050;-79
2023/12/17 06:42:17;;;;;;;18.80;12.77;;;;;;;2.95;84.36;98844.47;4976872;28;20054;-80
2023/12/17 06:44:44;;;;;;;17.50;12.13;;;;;;;2.97;84.49;98840.06;4975391;28;20117;-79
2023/12/17 06:47:12;;;;;;;17.65;11.85;;;;;;;2.98;83.51;98841.75;4975098;28;20586;-79
2023/12/17 06:49:53;;;;;;;14.52;10.85;;;;;;;2.97;83.86;98840.88;4974634;28;20606;-80
2023/12/17 06:52:20;;;;;;;14.48;10.32;;;;;;;2.99;84.39;98841.63;4975263;28;20085;-79
2023/12/17 06:54:48;;;;;;;20.63;12.00;;;;;;;2.98;83.68;98837.41;4974990;28;20058;-79
2023/12/17 06:57:17;;;;;;;14.38;10.65;;;;;;;2.92;82.72;98831.75;4974882;28;20083;-80
2023/12/17 06:59:44;;;;;;;15.88;10.52;;;;;;;2.87;82.00;98837.97;4974537;28;20492;-80
2023/12/17 07:02:12;;;;;;;15.88;10.05;;;;;;;2.83;81.91;98833.88;4975231;28;20047;-79
2023/12/17 07:04:40;;;;;;;15.68;10.70;;;;;;;2.88;83.85;98844.75;4975154;28;20058;-79
2023/12/17 07:07:08;;;;;;;16.95;12.20;;;;;;;2.89;84.37;98838.72;4975049;28;20471;-79
2023/12/17 07:09:35;;;;;;;18.15;11.30;;;;;;;2.89;83.84;98837.88;4974450;28;20518;-79
2023/12/17 07:12:03;;;;;;;20.25;12.40;;;;;;;2.89;83.34;98837.88;4975174;28;20463;-79
2023/12/17 07:14:32;;;;;;;23.75;15.13;;;;;;;2.91;84.21;98840.38;4975045;28;20047;-79
2023/12/17 07:17:00;;;;;;;21.13;14.18;;;;;;;2.95;84.90;98844.47;4974579;28;20050;-79
2023/12/17 07:19:27;;;;;;;21.67;14.23;;;;;;;3.00;84.21;98851.06;4974612;28;20078;-79
2023/12/17 07:21:55;;;;;;;26.42;15.23;;;;;;;3.00;83.59;98839.91;4975047;28;20121;-80
2023/12/17 07:24:22;;;;;;;23.00;14.82;;;;;;;2.99;82.82;98843.41;4975005;28;20109;-79
2023/12/17 07:26:51;;;;;;;25.02;15.43;;;;;;;3.00;82.93;98845.06;4974905;28;20080;-80
2023/12/17 07:29:19;;;;;;;22.77;14.55;;;;;;;3.00;82.81;98845.06;4973987;28;20051;-79
2023/12/17 07:31:48;;;;;;;23.70;15.02;;;;;;;3.00;82.54;98845.91;4974087;28;20194;-79
2023/12/17 07:34:15;;;;;;;21.38;13.90;;;;;;;2.98;81.59;98846.91;4970476;28;20047;-79
2023/12/17 07:36:48;;;;;;;25.42;14.88;;;;;;;2.97;82.26;98846.03;4971388;28;20057;-79
2023/12/17 07:39:16;;;;;;;18.40;12.38;;;;;;;3.04;82.95;98843.97;4974035;28;20081;-79
2023/12/17 07:41:44;;;;;;;22.08;14.13;;;;;;;3.10;84.36;98841.09;4974340;28;20507;-80
2023/12/17 07:44:11;;;;;;;24.27;16.02;;;;;;;3.22;86.39;98842.22;4968947;28;20054;-79
2023/12/17 07:46:39;;;;;;;20.75;13.68;;;;;;;3.28;86.87;98832.41;4973393;28;20515;-79
2023/12/17 07:49:08;;;;;;;17.95;12.10;;;;;;;3.30;85.48;98837.47;4955609;28;20160;-79
2023/12/17 07:51:38;;;;;;;19.40;13.40;;;;;;;3.34;84.39;98844.13;4955422;28;20474;-79
2023/12/17 07:54:05;;;;;;;19.48;12.13;;;;;;;3.35;82.80;98835.50;4955000;29;20055;-79
2023/12/17 07:56:33;;;;;;;18.45;12.82;;;;;;;3.34;82.47;98849.28;4962184;28;20499;-79
2023/12/17 07:59:01;;;;;;;21.08;13.77;;;;;;;3.33;82.27;98844.22;4968297;28;20109;-78
2023/12/17 08:01:29;;;;;;;19.08;12.20;;;;;;;3.28;82.93;98850.47;4956993;28;20051;-77
2023/12/17 08:03:57;;;;;;;17.05;12.05;;;;;;;3.26;83.27;98835.97;4956422;28;20158;-79
2023/12/17 08:06:26;;;;;;;18.33;11.27;;;;;;;3.21;81.85;98843.94;4972651;28;20050;-79
2023/12/17 08:08:55;;;;;;;15.25;10.63;;;;;;;3.17;81.17;98859.66;4962162;28;20043;-79
2023/12/17 08:11:22;;;;;;;17.10;10.88;;;;;;;3.13;80.70;98851.25;4968576;28;20495;-78
2023/12/17 08:13:50;;;;;;;16.50;11.25;;;;;;;3.12;82.02;98849.59;4965435;28;20066;-78
2023/12/17 08:16:18;;;;;;;16.00;11.40;;;;;;;3.19;84.08;98847.50;4977034;28;20054;-79
2023/12/17 08:18:45;;;;;;;21.50;12.18;;;;;;;3.30;85.54;98858.09;4957591;28;20122;-79
2023/12/17 08:21:13;;;;;;;17.60;10.93;;;;;;;3.38;86.56;98847.38;4959909;28;20514;-79
2023/12/17 08:23:42;;;;;;;19.88;13.10;;;;;;;3.42;86.29;98852.31;4973537;28;20055;-78
2023/12/17 08:26:10;;;;;;;17.23;12.48;;;;;;;3.46;85.19;98855.56;4969808;28;20051;-78
2023/12/17 08:28:38;;;;;;;15.45;10.63;;;;;;;3.45;83.57;98846.97;4958558;28;20042;-79
2023/12/17 08:31:09;;;;;;;18.13;11.65;;;;;;;3.48;82.86;98846.81;4961477;28;20051;-79
2023/12/17 08:33:38;;;;;;;19.48;13.50;;;;;;;3.51;82.42;98843.25;4954510;29;20471;-79
2023/12/17 08:36:07;;;;;;;16.90;11.15;;;;;;;3.51;82.62;98845.81;4955032;28;20047;-79
2023/12/17 08:38:34;;;;;;;19.77;12.48;;;;;;;3.55;83.35;98843.91;4955000;28;20046;-79
2023/12/17 08:41:04;;;;;;;20.42;13.10;;;;;;;3.63;84.80;98849.47;4966725;28;20050;-79
2023/12/17 08:43:31;;;;;;;18.17;11.50;;;;;;;3.67;83.91;98846.69;4967079;28;20047;-79
2023/12/17 08:45:59;;;;;;;17.70;11.48;;;;;;;3.69;82.32;98849.16;4964313;28;20097;-79
2023/12/17 08:48:26;;;;;;;19.77;12.57;;;;;;;3.71;81.86;98850.72;4965007;28;20050;-79
2023/12/17 08:50:54;;;;;;;19.35;13.52;;;;;;;3.74;82.26;98847.19;4977041;28;20047;-79
2023/12/17 08:53:23;;;;;;;19.48;13.35;;;;;;;3.79;83.05;98840.00;4977349;28;20051;-80
2023/12/17 08:55:50;;;;;;;30.13;13.57;;;;;;;3.85;84.13;98844.84;4966171;28;20138;-80
2023/12/17 08:58:19;;;;;;;19.23;12.65;;;;;;;3.90;84.99;98845.41;4975311;28;20043;-79
2023/12/17 09:00:47;;;;;;;24.02;13.77;;;;;;;3.94;83.99;98848.66;4960361;28;20055;-80
2023/12/17 09:03:15;;;;;;;23.73;15.23;;;;;;;3.98;83.18;98849.31;4966706;28;20073;-79
2023/12/17 09:05:43;;;;;;;20.02;14.25;;;;;;;3.97;82.29;98848.47;4976759;28;20054;-80
2023/12/17 09:08:12;;;;;;;21.35;14.90;;;;;;;3.96;81.06;98846.81;4963962;28;20047;-79
2023/12/17 09:10:40;;;;;;;21.33;14.80;;;;;;;3.96;80.79;98848.56;4977297;28;20058;-81
2023/12/17 09:13:09;;;;;;;22.23;15.95;;;;;;;4.04;83.33;98852.38;4969988;28;20469;-79
2023/12/17 09:15:39;;;;;;;21.67;15.10;;;;;;;4.15;83.21;98854.38;4957446;28;20587;-79
2023/12/17 09:18:07;;;;;;;20.45;14.60;;;;;;;4.20;83.15;98854.09;4957324;29;20110;-79
2023/12/17 09:20:34;;;;;;;21.85;14.73;;;;;;;4.24;84.44;98863.34;4958684;28;20098;-80
2023/12/17 09:23:02;;;;;;;20.25;13.00;;;;;;;4.31;83.55;98859.53;4966345;28;20046;-80
2023/12/17 09:25:30;;;;;;;23.13;16.30;;;;;;;4.35;83.17;98861.00;4967825;28;20141;-80
2023/12/17 09:27:58;;;;;;;18.67;13.57;;;;;;;4.41;83.71;98855.47;4965412;28;20527;-80
2023/12/17 09:30:25;;;;;;;19.98;12.98;;;;;;;4.43;82.28;98860.56;4968988;28;20055;-79
2023/12/17 09:32:54;;;;;;;20.08;13.23;;;;;;;4.43;81.67;98856.22;4976855;28;20057;-80
2023/12/17 09:35:22;;;;;;;17.38;12.57;;;;;;;4.46;81.84;98861.25;4959998;28;20051;-79
2023/12/17 09:37:51;;;;;;;19.25;14.05;;;;;;;4.51;82.85;98858.38;4956488;28;20043;-80
2023/12/17 09:40:18;;;;;;;17.80;12.00;;;;;;;4.57;82.35;98857.19;4959475;28;20073;-79
2023/12/17 09:42:51;;;;;;;21.02;13.10;;;;;;;4.61;83.13;98858.69;4968115;28;20055;-79
2023/12/17 09:45:19;;;;;;;16.80;12.38;;;;;;;4.66;82.14;98856.69;4962462;28;20077;-78
2023/12/17 09:47:48;;;;;;;15.23;10.80;;;;;;;4.70;80.74;98848.66;4956947;28;20067;-81
2023/12/17 09:50:17;;;;;;;15.52;11.77;;;;;;;4.74;80.35;98844.13;4973128;28;20051;-80
2023/12/17 09:52:44;;;;;;;17.77;12.75;;;;;;;4.77;80.91;98849.13;4975852;28;20050;-80
2023/12/17 09:55:12;;;;;;;15.00;11.95;;;;;;;4.86;81.55;98840.81;4975377;28;20082;-79
2023/12/17 09:57:40;;;;;;;16.98;11.23;;;;;;;4.94;81.04;98835.19;4967976;28;20051;-79
2023/12/17 10:00:09;;;;;;;14.88;10.60;;;;;;;4.99;79.63;98827.16;4968407;28;20054;-79
2023/12/17 10:02:37;;;;;;;15.60;10.65;;;;;;;5.03;78.56;98829.47;4968009;28;20055;-79
2023/12/17 10:05:07;;;;;;;17.42;11.43;;;;;;;5.09;80.22;98834.25;4975830;28;20053;-79
2023/12/17 10:07:37;;;;;;;13.77;10.50;;;;;;;5.18;80.56;98825.09;4975980;28;20047;-79
2023/12/17 10:10:06;;;;;;;15.88;10.25;;;;;;;5.25;79.62;98829.00;4956988;28;20054;-79
2023/12/17 10:12:35;;;;;;;17.30;10.88;;;;;;;5.31;77.79;98831.22;4956539;28;20098;-79
2023/12/17 10:15:04;;;;;;;18.35;12.23;;;;;;;5.41;80.30;98828.06;4956401;28;20071;-80
2023/12/17 10:17:32;;;;;;;20.20;13.10;;;;;;;5.53;82.13;98817.78;4974263;28;20442;-80
2023/12/17 10:20:00;;;;;;;15.07;10.38;;;;;;;5.62;81.05;98815.53;4974664;28;20466;-79
2023/12/17 10:22:28;;;;;;;15.00;9.73;;;;;;;5.67;78.85;98816.94;4956283;28;20058;-80
2023/12/17 10:24:57;;;;;;;15.60;11.38;;;;;;;5.76;79.59;98810.34;4956791;28;20047;-79
2023/12/17 10:27:25;;;;;;;14.55;11.05;;;;;;;5.86;79.66;98805.38;4956017;28;20047;-79
2023/12/17 10:29:53;;;;;;;15.00;11.02;;;;;;;5.94;78.54;98803.16;4956152;28;20700;-80
2023/12/17 10:32:23;;;;;;;16.83;11.98;;;;;;;6.00;77.78;98800.19;4956432;28;20134;-79
2023/12/17 10:34:52;;;;;;;19.65;13.20;;;;;;;6.07;78.29;98796.28;4965167;28;20050;-79
2023/12/17 10:37:24;;;;;;;18.75;12.63;;;;;;;6.16;79.44;98790.50;4975403;28;20059;-79
2023/12/17 10:39:54;;;;;;;16.63;13.35;;;;;;;6.26;80.76;98795.91;4974530;28;20609;-80
2023/12/17 10:42:25;;;;;;;19.98;13.70;;;;;;;6.33;77.61;98785.97;4976030;28;20061;-79
2023/12/17 10:44:55;;;;;;;22.13;14.27;;;;;;;6.38;75.67;98783.91;4975089;28;20090;-80
2023/12/17 10:47:25;;;;;;;18.00;12.73;;;;;;;6.44;75.33;98780.91;4974278;28;20047;-80
2023/12/17 10:49:54;;;;;;;16.00;11.98;;;;;;;6.53;76.02;98774.28;4976030;28;20078;-80
2023/12/17 10:52:22;;;;;;;17.35;12.95;;;;;;;6.63;76.22;98777.94;4972558;28;20477;-80
2023/12/17 10:54:50;;;;;;;19.08;13.55;;;;;;;6.75;78.49;98776.25;4972617;28;20419;-80
2023/12/17 10:57:21;;;;;;;14.90;11.80;;;;;;;6.83;75.60;98770.56;4975619;28;20143;-81
2023/12/17 10:59:54;;;;;;;17.90;12.45;;;;;;;6.90;73.68;98764.84;4974618;28;20051;-79
2023/12/17 11:02:25;;;;;;;14.93;9.75;;;;;;;7.00;74.15;98763.28;4958490;28;20051;-80
2023/12/17 11:04:56;;;;;;;11.32;8.90;;;;;;;7.11;72.61;98766.91;4956232;29;20055;-80
2023/12/17 11:07:24;;;;;;;11.13;8.00;;;;;;;7.20;72.14;98758.47;4954962;28;20427;-80
2023/12/17 11:10:06;;;;;;;11.82;9.77;;;;;;;7.32;71.40;98761.97;4970392;28;20067;-80
2023/12/17 11:12:35;;;;;;;11.98;9.80;;;;;;;7.42;72.65;98760.38;4970604;28;20082;-80
2023/12/17 11:15:05;;;;;;;12.48;9.95;;;;;;;7.54;75.26;98754.31;4972618;28;20126;-80
2023/12/17 11:17:33;;;;;;;14.15;11.23;;;;;;;7.65;74.84;98745.75;4974711;28;20058;-80
2023/12/17 11:20:03;;;;;;;15.63;10.38;;;;;;;7.78;74.99;98736.16;4974150;28;20082;-80
2023/12/17 11:22:34;;;;;;;15.05;11.15;;;;;;;7.91;78.08;98730.84;4975092;28;20142;-80
2023/12/17 11:25:02;;;;;;;15.73;11.50;;;;;;;8.04;76.15;98717.78;4960516;28;20062;-79
2023/12/17 11:27:31;;;;;;;14.73;11.25;;;;;;;8.15;74.58;98727.41;4955115;29;20055;-79
2023/12/17 11:30:05;;;;;;;16.52;10.05;;;;;;;8.28;71.70;98730.72;4964300;28;20201;-81
2023/12/17 11:32:33;;;;;;;13.00;10.27;;;;;;;8.42;71.98;98721.94;4972362;28;20082;-81
2023/12/17 11:35:01;;;;;;;15.00;11.05;;;;;;;8.52;69.66;98714.25;4974441;28;20427;-77